createdAt,value
2017-08-21T00:09:34.215Z,5.10
2017-08-21T00:19:56.034Z,4.90
2017-08-21T00:30:18.579Z,5.77
2017-08-21T00:45:58.062Z,5.30
2017-08-21T00:56:19.886Z,4.67
2017-08-21T01:06:42.635Z,5.20
2017-08-21T01:17:04.384Z,4.60
2017-08-21T01:27:27.307Z,5.50
2017-08-21T01:37:49.041Z,4.20
2017-08-21T01:48:11.868Z,4.70
2017-08-21T01:58:34.679Z,5.20
2017-08-21T02:08:57.491Z,4.70
2017-08-21T02:19:20.364Z,5.10
2017-08-21T02:29:42.884Z,4.80
2017-08-21T02:45:22.304Z,5.50
2017-08-21T02:55:44.112Z,5.60
2017-08-21T03:06:06.024Z,6.17
2017-08-21T03:16:29.628Z,5.90
2017-08-21T03:26:52.335Z,5.60
2017-08-21T03:37:14.078Z,6.40
2017-08-21T03:47:37.611Z,5.73
2017-08-21T03:58:01.323Z,6.30
2017-08-21T04:08:24.640Z,6.77
2017-08-21T04:13:30.445Z,5.30
2017-08-21T04:23:53.240Z,7.97
2017-08-21T04:34:16.815Z,7.90
2017-08-21T04:44:38.479Z,8.90
2017-08-21T04:55:02.091Z,8.90
2017-08-21T05:00:07.901Z,7.40
2017-08-21T05:10:32.154Z,8.80
2017-08-21T05:20:55.698Z,9.33
2017-08-21T05:31:19.346Z,9.50
2017-08-21T05:46:58.878Z,8.80
2017-08-21T05:57:21.620Z,8.73
2017-08-21T06:07:45.236Z,7.70
2017-08-21T06:18:07.839Z,8.20
2017-08-21T06:23:13.641Z,5.70
2017-08-21T06:33:37.117Z,6.63
2017-08-21T06:43:59.702Z,7.43
2017-08-21T06:54:20.445Z,7.87
2017-08-21T07:04:40.391Z,6.97
2017-08-21T07:09:46.184Z,6.00
2017-08-21T07:20:06.783Z,5.70
2017-08-21T07:30:28.479Z,6.00
2017-08-21T07:46:04.039Z,6.10
2017-08-21T08:01:40.599Z,6.37
2017-08-21T08:12:02.465Z,6.50
2017-08-21T08:17:08.271Z,5.80
2017-08-21T08:27:29.636Z,6.00
2017-08-21T08:32:35.428Z,5.10
2017-08-21T08:48:13.371Z,6.40
2017-08-21T08:58:35.203Z,5.70
2017-08-21T09:08:57.051Z,5.00
2017-08-21T09:19:18.364Z,4.95
2017-08-21T09:29:40.991Z,4.57
2017-08-21T09:45:18.530Z,4.70
2017-08-21T09:55:41.216Z,4.73
2017-08-21T10:06:03.536Z,4.43
2017-08-21T10:16:23.408Z,5.00
2017-08-21T10:26:46.178Z,5.10
2017-08-21T10:37:05.968Z,4.60
2017-08-21T10:47:28.019Z,2.50
2017-08-21T10:57:50.701Z,2.50
2017-08-21T11:08:17.275Z,2.20
2017-08-21T11:18:39.857Z,1.70
2017-08-21T11:29:02.387Z,2.05
2017-08-21T11:44:41.144Z,2.55
2017-08-21T11:49:46.947Z,2.70
2017-08-21T12:00:12.630Z,2.37
2017-08-21T12:10:35.135Z,2.40
2017-08-21T12:21:10.625Z,2.55
2017-08-21T12:31:46.437Z,2.30
2017-08-21T12:42:09.855Z,2.00
2017-08-21T12:52:33.868Z,2.30
2017-08-21T13:02:59.784Z,2.40
2017-08-21T13:08:05.666Z,1.87
2017-08-21T13:18:31.068Z,1.92
2017-08-21T13:28:53.014Z,2.20
2017-08-21T13:44:45.263Z,2.20
2017-08-21T13:55:11.840Z,2.70
2017-08-21T14:05:46.508Z,2.50
2017-08-21T14:10:51.565Z,2.20
2017-08-21T14:26:35.290Z,2.67
2017-08-21T14:36:58.086Z,2.75
2017-08-21T14:47:20.762Z,2.20
2017-08-21T14:58:22.201Z,2.50
2017-08-21T15:08:47.843Z,2.75
2017-08-21T15:19:10.226Z,2.10
2017-08-21T15:29:35.070Z,2.20
2017-08-21T15:50:12.881Z,1.80
2017-08-21T16:00:35.411Z,2.12
2017-08-21T16:10:57.199Z,2.17
2017-08-21T16:21:22.737Z,2.12
2017-08-21T16:31:44.623Z,2.10
2017-08-21T16:47:23.354Z,1.80
2017-08-21T16:57:45.359Z,1.65
2017-08-21T17:08:07.185Z,2.20
2017-08-21T17:18:28.979Z,1.80
2017-08-21T17:28:52.289Z,2.40
2017-08-21T17:44:31.790Z,1.83
2017-08-21T17:54:53.634Z,2.00
2017-08-21T18:05:16.137Z,1.80
2017-08-21T18:15:37.954Z,2.73
2017-08-21T18:26:04.183Z,2.70
2017-08-21T18:36:25.657Z,2.17
2017-08-21T18:46:48.302Z,2.90
2017-08-21T18:57:10.870Z,2.50
2017-08-21T19:07:32.568Z,3.12
2017-08-21T19:17:52.656Z,3.20
2017-08-21T19:28:14.538Z,3.43
2017-08-21T19:38:36.139Z,3.80
2017-08-21T19:48:59.576Z,3.60
2017-08-21T19:59:22.189Z,4.27
2017-08-21T20:09:44.655Z,4.80
2017-08-21T20:20:08.284Z,3.97
2017-08-21T20:30:30.884Z,4.60
2017-08-21T20:46:10.342Z,5.20
2017-08-21T20:56:32.905Z,4.80
2017-08-21T21:06:55.457Z,4.50
2017-08-21T21:12:01.223Z,5.17
2017-08-21T21:22:22.989Z,5.77
2017-08-21T21:32:45.559Z,5.50
2017-08-21T21:48:24.923Z,5.50
2017-08-21T21:58:46.654Z,5.87
2017-08-21T22:09:07.715Z,6.00
2017-08-21T22:14:14.217Z,6.40
2017-08-21T22:24:36.009Z,6.70
2017-08-21T22:35:00.502Z,6.40
2017-08-21T22:45:22.421Z,5.63
2017-08-21T22:55:44.274Z,7.10
2017-08-21T23:06:06.135Z,6.77
2017-08-21T23:16:27.089Z,6.70
2017-08-21T23:26:48.822Z,7.27
2017-08-21T23:37:10.664Z,6.80
2017-08-21T23:47:33.221Z,7.00
2017-08-21T23:57:55.866Z,7.10
